createdAt,value
2022-09-11T00:04:58.954Z,55.50
2022-09-11T00:10:01.926Z,55.50
2022-09-11T00:15:07.487Z,55.50
2022-09-11T00:20:11.039Z,55.60
2022-09-11T00:25:13.979Z,55.50
2022-09-11T00:30:18.414Z,55.50
2022-09-11T00:35:21.375Z,55.50
2022-09-11T00:40:25.443Z,55.40
2022-09-11T00:45:29.919Z,55.40
2022-09-11T00:50:33.986Z,55.40
2022-09-11T00:55:39.031Z,55.40
2022-09-11T01:00:45.650Z,55.40
2022-09-11T01:05:48.921Z,56.00
2022-09-11T01:11:04.308Z,55.40
2022-09-11T01:16:16.726Z,55.50
2022-09-11T01:21:54.452Z,55.50
2022-09-11T01:27:39.776Z,55.50
2022-09-11T01:33:07.201Z,55.50
2022-09-11T01:38:15.973Z,55.50
2022-09-11T01:43:24.262Z,55.40
2022-09-11T01:48:32.978Z,55.50
2022-09-11T01:53:40.072Z,55.50
2022-09-11T01:58:47.143Z,55.50
2022-09-11T02:03:54.647Z,55.40
2022-09-11T02:09:01.166Z,55.40
2022-09-11T02:14:10.382Z,55.40
2022-09-11T02:19:15.603Z,55.40
2022-09-11T02:24:20.007Z,55.50
2022-09-11T02:29:24.435Z,55.40
2022-09-11T02:34:33.543Z,55.40
2022-09-11T02:40:13.628Z,55.40
2022-09-11T02:45:28.680Z,55.40
2022-09-11T02:50:40.342Z,55.40
2022-09-11T02:55:56.108Z,55.40
2022-09-11T03:01:02.482Z,55.50
2022-09-11T03:06:06.043Z,55.50
2022-09-11T03:11:09.890Z,55.50
2022-09-11T03:16:14.558Z,55.50
2022-09-11T03:21:17.535Z,55.50
2022-09-11T03:26:20.872Z,55.50
2022-09-11T03:31:25.259Z,55.50
2022-09-11T03:36:28.238Z,55.40
2022-09-11T03:41:31.223Z,55.50
2022-09-11T03:46:35.715Z,55.50
2022-09-11T03:51:38.929Z,55.50
2022-09-11T03:56:43.039Z,56.00
2022-09-11T04:01:50.170Z,56.00
2022-09-11T04:06:53.167Z,55.50
2022-09-11T04:11:56.115Z,55.50
2022-09-11T04:17:00.424Z,55.50
2022-09-11T04:22:03.966Z,55.50
2022-09-11T04:27:06.986Z,55.50
2022-09-11T04:32:11.734Z,55.50
2022-09-11T04:37:15.615Z,55.50
2022-09-11T04:42:18.581Z,55.50
2022-09-11T04:47:22.892Z,55.60
2022-09-11T04:52:26.031Z,55.60
2022-09-11T04:57:31.179Z,55.60
2022-09-11T05:02:36.160Z,55.60
2022-09-11T05:07:39.456Z,55.60
2022-09-11T05:12:42.444Z,55.60
2022-09-11T05:17:48.389Z,55.60
2022-09-11T05:22:53.542Z,55.60
2022-09-11T05:27:56.530Z,55.60
2022-09-11T05:33:00.831Z,55.60
2022-09-11T05:38:03.770Z,55.60
2022-09-11T05:43:07.028Z,55.70
2022-09-11T05:48:11.519Z,55.60
2022-09-11T05:53:14.442Z,55.70
2022-09-11T05:58:17.559Z,55.70
2022-09-11T06:03:21.882Z,55.80
2022-09-11T06:08:24.858Z,55.70
2022-09-11T06:13:30.464Z,55.70
2022-09-11T06:18:35.157Z,55.80
2022-09-11T06:23:39.893Z,55.80
2022-09-11T06:28:43.392Z,55.80
2022-09-11T06:33:48.639Z,55.80
2022-09-11T06:38:54.755Z,55.80
2022-09-11T06:43:57.922Z,55.80
2022-09-11T06:49:02.557Z,55.90
2022-09-11T06:54:05.842Z,55.90
2022-09-11T06:59:09.032Z,55.90
2022-09-11T07:04:13.350Z,55.90
2022-09-11T07:09:16.447Z,56.00
2022-09-11T07:14:21.372Z,56.00
2022-09-11T07:19:25.971Z,56.00
2022-09-11T07:24:28.934Z,56.30
2022-09-11T07:29:31.877Z,56.90
2022-09-11T07:34:36.171Z,56.30
2022-09-11T07:39:39.174Z,56.40
2022-09-11T07:44:42.384Z,56.60
2022-09-11T07:49:48.113Z,56.60
2022-09-11T07:54:52.142Z,56.70
2022-09-11T07:59:55.098Z,56.80
2022-09-11T08:05:00.174Z,56.80
2022-09-11T08:10:26.124Z,57.00
2022-09-11T08:15:27.138Z,57.10
2022-09-11T08:20:32.277Z,57.50
2022-09-11T08:25:36.871Z,57.50
2022-09-11T08:30:40.571Z,57.40
2022-09-11T08:35:45.371Z,57.80
2022-09-11T08:40:48.614Z,57.20
2022-09-11T08:45:55.695Z,57.00
2022-09-11T08:51:00.187Z,57.00
2022-09-11T08:56:09.024Z,57.30
2022-09-11T09:01:24.069Z,57.40
2022-09-11T09:06:51.943Z,58.00
2022-09-11T09:12:00.687Z,57.40
2022-09-11T09:17:07.625Z,57.50
2022-09-11T09:22:18.909Z,57.50
2022-09-11T09:27:28.248Z,57.50
2022-09-11T09:32:35.178Z,57.80
2022-09-11T09:37:40.148Z,57.70
2022-09-11T09:42:59.950Z,57.60
2022-09-11T09:48:03.263Z,57.50
2022-09-11T09:53:15.804Z,57.60
2022-09-11T09:58:18.856Z,57.40
2022-09-11T10:03:23.320Z,57.50
2022-09-11T10:08:33.683Z,58.10
2022-09-11T10:13:41.228Z,58.60
2022-09-11T10:18:46.094Z,58.90
2022-09-11T10:23:53.254Z,58.80
2022-09-11T10:29:00.511Z,58.50
2022-09-11T10:34:05.082Z,58.60
2022-09-11T10:39:20.331Z,59.00
2022-09-11T10:44:24.559Z,59.20
2022-09-11T10:49:27.583Z,59.60
2022-09-11T10:54:46.949Z,59.40
2022-09-11T11:00:01.006Z,59.10
2022-09-11T11:05:08.123Z,58.70
2022-09-11T11:10:25.376Z,58.90
2022-09-11T11:15:40.071Z,58.80
2022-09-11T11:20:51.573Z,58.60
2022-09-11T11:26:07.450Z,58.60
2022-09-11T11:31:23.672Z,58.60
2022-09-11T11:36:35.375Z,59.00
2022-09-11T11:41:44.893Z,58.20
2022-09-11T11:46:52.260Z,58.20
2022-09-11T11:52:07.110Z,58.00
2022-09-11T11:57:16.762Z,57.90
2022-09-11T12:02:25.763Z,57.80
2022-09-11T12:07:31.559Z,57.80
2022-09-11T12:12:47.713Z,57.70
2022-09-11T12:18:00.950Z,57.70
2022-09-11T12:23:04.551Z,58.20
2022-09-11T12:28:23.431Z,57.50
2022-09-11T12:33:59.370Z,57.40
2022-09-11T12:39:16.933Z,57.40
2022-09-11T12:44:32.808Z,57.30
2022-09-11T12:49:37.470Z,57.30
2022-09-11T12:54:42.507Z,57.20
2022-09-11T12:59:53.942Z,57.20
2022-09-11T13:04:57.983Z,57.10
2022-09-11T13:10:06.687Z,57.10
2022-09-11T13:15:33.474Z,57.10
2022-09-11T13:20:36.476Z,57.10
2022-09-11T13:25:42.008Z,57.00
2022-09-11T13:30:54.541Z,57.00
2022-09-11T13:35:59.509Z,57.00
2022-09-11T13:41:05.069Z,57.50
2022-09-11T13:46:23.692Z,57.50
2022-09-11T13:51:31.206Z,56.90
2022-09-11T13:56:47.084Z,56.90
2022-09-11T14:01:56.522Z,56.90
2022-09-11T14:06:59.791Z,57.00
2022-09-11T14:12:04.707Z,57.50
2022-09-11T14:17:13.759Z,56.90
2022-09-11T14:22:24.556Z,56.90
2022-09-11T14:27:45.588Z,56.80
2022-09-11T14:32:50.296Z,56.80
2022-09-11T14:37:53.243Z,56.70
2022-09-11T14:42:56.230Z,56.80
2022-09-11T14:48:01.076Z,56.70
2022-09-11T14:53:04.104Z,56.70
2022-09-11T14:58:07.114Z,56.70
2022-09-11T15:03:11.736Z,56.70
2022-09-11T15:08:15.691Z,56.80
2022-09-11T15:13:19.412Z,56.70
2022-09-11T15:18:23.776Z,56.70
2022-09-11T15:23:26.783Z,56.70
2022-09-11T15:28:31.334Z,56.60
2022-09-11T15:33:35.820Z,56.60
2022-09-11T15:38:38.778Z,56.60
2022-09-11T15:43:45.252Z,56.60
2022-09-11T15:48:49.895Z,56.60
2022-09-11T15:53:53.362Z,56.60
2022-09-11T15:58:58.862Z,56.60
2022-09-11T16:04:05.347Z,56.60
2022-09-11T16:09:10.037Z,56.60
2022-09-11T16:14:18.750Z,57.10
2022-09-11T16:19:28.003Z,56.50
2022-09-11T16:24:37.433Z,56.40
2022-09-11T16:30:20.367Z,56.40
2022-09-11T16:35:08.299Z,56.40
2022-09-11T16:40:11.763Z,56.40
2022-09-11T16:45:14.818Z,56.30
2022-09-11T16:50:19.468Z,56.30
2022-09-11T16:55:22.434Z,56.80
2022-09-11T17:00:25.396Z,56.30
2022-09-11T17:05:29.744Z,56.80
2022-09-11T17:10:32.696Z,55.50
2022-09-11T17:15:35.867Z,55.20
2022-09-11T17:20:40.688Z,54.90
2022-09-11T17:25:44.167Z,55.10
2022-09-11T17:30:47.876Z,55.20
2022-09-11T17:35:52.881Z,55.60
2022-09-11T17:40:57.845Z,55.60
2022-09-11T17:46:05.897Z,56.60
2022-09-11T17:51:12.782Z,57.00
2022-09-11T17:56:17.423Z,57.30
2022-09-11T18:01:21.092Z,57.30
2022-09-11T18:06:28.340Z,57.30
2022-09-11T18:11:32.069Z,57.30
2022-09-11T18:16:35.296Z,57.90
2022-09-11T18:21:39.999Z,57.60
2022-09-11T18:26:43.042Z,57.70
2022-09-11T18:31:47.712Z,58.10
2022-09-11T18:36:52.586Z,57.40
2022-09-11T18:41:55.755Z,57.40
2022-09-11T18:46:59.090Z,57.30
2022-09-11T18:52:03.883Z,57.40
2022-09-11T18:57:07.235Z,57.40
2022-09-11T19:02:11.172Z,57.40
2022-09-11T19:07:15.895Z,57.30
2022-09-11T19:12:19.478Z,57.60
2022-09-11T19:17:22.651Z,57.40
2022-09-11T19:22:28.043Z,57.40
2022-09-11T19:27:31.810Z,57.70
2022-09-11T19:32:34.840Z,57.60
2022-09-11T19:37:39.148Z,57.60
2022-09-11T19:42:42.120Z,57.50
2022-09-11T19:47:45.047Z,57.50
2022-09-11T19:52:49.375Z,57.50
2022-09-11T19:57:52.339Z,57.50
2022-09-11T20:02:55.276Z,57.40
2022-09-11T20:08:00.410Z,57.40
2022-09-11T20:13:03.589Z,57.40
2022-09-11T20:18:07.429Z,57.50
2022-09-11T20:23:12.115Z,57.50
2022-09-11T20:28:15.996Z,57.40
2022-09-11T20:33:18.948Z,57.30
2022-09-11T20:38:23.234Z,57.30
2022-09-11T20:43:26.209Z,57.80
2022-09-11T20:48:29.330Z,57.20
2022-09-11T20:53:33.640Z,57.10
2022-09-11T20:58:37.775Z,57.10
2022-09-11T21:03:45.445Z,57.10
2022-09-11T21:08:54.366Z,57.10
2022-09-11T21:13:57.674Z,57.10
2022-09-11T21:19:01.900Z,57.10
2022-09-11T21:24:08.620Z,57.00
2022-09-11T21:29:14.106Z,56.90
2022-09-11T21:34:17.199Z,57.00
2022-09-11T21:39:21.548Z,56.80
2022-09-11T21:44:24.517Z,56.80
2022-09-11T21:49:28.555Z,56.70
2022-09-11T21:54:32.838Z,56.70
2022-09-11T21:59:35.773Z,56.70
2022-09-11T22:04:38.797Z,56.80
2022-09-11T22:09:43.151Z,56.80
2022-09-11T22:14:48.807Z,56.70
2022-09-11T22:19:51.760Z,56.80
2022-09-11T22:24:56.083Z,56.70
2022-09-11T22:29:59.016Z,56.60
2022-09-11T22:35:01.959Z,56.80
2022-09-11T22:40:07.946Z,56.80
2022-09-11T22:45:11.652Z,56.70
2022-09-11T22:50:14.611Z,56.70
2022-09-11T22:55:19.084Z,56.50
2022-09-11T23:00:22.163Z,56.60
2022-09-11T23:05:42.780Z,56.50
2022-09-11T23:10:47.836Z,56.50
2022-09-11T23:15:50.770Z,56.50
2022-09-11T23:20:54.623Z,56.40
2022-09-11T23:25:58.956Z,56.40
2022-09-11T23:31:02.231Z,56.40
2022-09-11T23:36:06.663Z,56.40
2022-09-11T23:41:11.008Z,56.40
2022-09-11T23:46:14.303Z,56.90
2022-09-11T23:51:17.582Z,56.90
2022-09-11T23:56:22.547Z,56.30
